sensor_id;sensor_type;location;lat;lon;timestamp;P1;durP1;ratioP1;P2;durP2;ratioP2
52432;SDS011;38352;53.244;6.594;2024-02-21T00:00:43;13.45;;;4.20;;
52432;SDS011;38352;53.244;6.594;2024-02-21T00:03:09;16.20;;;4.47;;
52432;SDS011;38352;53.244;6.594;2024-02-21T00:05:35;19.95;;;4.90;;
52432;SDS011;38352;53.244;6.594;2024-02-21T00:08:01;18.85;;;4.72;;
52432;SDS011;38352;53.244;6.594;2024-02-21T00:10:28;15.18;;;4.47;;
52432;SDS011;38352;53.244;6.594;2024-02-21T00:12:56;16.40;;;4.57;;
52432;SDS011;38352;53.244;6.594;2024-02-21T00:15:24;16.98;;;4.50;;
52432;SDS011;38352;53.244;6.594;2024-02-21T00:17:50;12.77;;;4.75;;
52432;SDS011;38352;53.244;6.594;2024-02-21T00:20:16;16.58;;;5.03;;
52432;SDS011;38352;53.244;6.594;2024-02-21T00:22:43;14.50;;;4.57;;
52432;SDS011;38352;53.244;6.594;2024-02-21T00:25:09;14.38;;;4.18;;
52432;SDS011;38352;53.244;6.594;2024-02-21T00:27:35;13.48;;;4.35;;
52432;SDS011;38352;53.244;6.594;2024-02-21T00:30:02;14.68;;;5.00;;
52432;SDS011;38352;53.244;6.594;2024-02-21T00:32:28;21.90;;;5.30;;
52432;SDS011;38352;53.244;6.594;2024-02-21T00:34:54;13.82;;;4.28;;
52432;SDS011;38352;53.244;6.594;2024-02-21T00:37:20;27.85;;;4.82;;
52432;SDS011;38352;53.244;6.594;2024-02-21T00:39:46;17.00;;;4.60;;
52432;SDS011;38352;53.244;6.594;2024-02-21T00:42:12;17.80;;;4.57;;
52432;SDS011;38352;53.244;6.594;2024-02-21T00:44:38;23.92;;;5.43;;
52432;SDS011;38352;53.244;6.594;2024-02-21T00:47:04;15.40;;;4.53;;
52432;SDS011;38352;53.244;6.594;2024-02-21T00:49:30;19.50;;;5.50;;
52432;SDS011;38352;53.244;6.594;2024-02-21T00:51:57;20.48;;;5.05;;
52432;SDS011;38352;53.244;6.594;2024-02-21T00:54:23;16.27;;;5.43;;
52432;SDS011;38352;53.244;6.594;2024-02-21T00:56:49;19.38;;;5.78;;
52432;SDS011;38352;53.244;6.594;2024-02-21T00:59:15;17.77;;;6.05;;
52432;SDS011;38352;53.244;6.594;2024-02-21T01:01:41;18.05;;;7.65;;
52432;SDS011;38352;53.244;6.594;2024-02-21T01:04:08;20.13;;;6.50;;
52432;SDS011;38352;53.244;6.594;2024-02-21T01:06:34;16.55;;;5.55;;
52432;SDS011;38352;53.244;6.594;2024-02-21T01:09:00;15.43;;;5.22;;
52432;SDS011;38352;53.244;6.594;2024-02-21T01:11:26;20.55;;;6.53;;
52432;SDS011;38352;53.244;6.594;2024-02-21T01:13:53;18.90;;;6.63;;
52432;SDS011;38352;53.244;6.594;2024-02-21T01:16:19;19.33;;;6.30;;
52432;SDS011;38352;53.244;6.594;2024-02-21T01:18:45;23.13;;;6.60;;
52432;SDS011;38352;53.244;6.594;2024-02-21T01:21:11;16.60;;;6.82;;
52432;SDS011;38352;53.244;6.594;2024-02-21T01:23:37;18.92;;;6.05;;
52432;SDS011;38352;53.244;6.594;2024-02-21T01:26:03;19.52;;;6.22;;
52432;SDS011;38352;53.244;6.594;2024-02-21T01:28:30;21.67;;;7.13;;
52432;SDS011;38352;53.244;6.594;2024-02-21T01:30:56;19.00;;;7.10;;
52432;SDS011;38352;53.244;6.594;2024-02-21T01:33:22;18.52;;;6.85;;
52432;SDS011;38352;53.244;6.594;2024-02-21T01:35:48;18.58;;;7.15;;
52432;SDS011;38352;53.244;6.594;2024-02-21T01:38:15;25.77;;;7.93;;
52432;SDS011;38352;53.244;6.594;2024-02-21T01:40:41;23.77;;;7.80;;
52432;SDS011;38352;53.244;6.594;2024-02-21T01:43:17;24.00;;;7.25;;
52432;SDS011;38352;53.244;6.594;2024-02-21T01:45:45;20.40;;;7.07;;
52432;SDS011;38352;53.244;6.594;2024-02-21T01:48:12;18.90;;;8.27;;
52432;SDS011;38352;53.244;6.594;2024-02-21T01:50:38;20.50;;;6.78;;
52432;SDS011;38352;53.244;6.594;2024-02-21T01:53:05;14.02;;;7.65;;
52432;SDS011;38352;53.244;6.594;2024-02-21T01:55:32;25.85;;;8.40;;
52432;SDS011;38352;53.244;6.594;2024-02-21T01:57:59;17.77;;;6.15;;
52432;SDS011;38352;53.244;6.594;2024-02-21T02:00:25;16.77;;;6.57;;
52432;SDS011;38352;53.244;6.594;2024-02-21T02:02:52;15.77;;;6.78;;
52432;SDS011;38352;53.244;6.594;2024-02-21T02:05:19;15.98;;;6.38;;
52432;SDS011;38352;53.244;6.594;2024-02-21T02:07:46;16.48;;;5.55;;
52432;SDS011;38352;53.244;6.594;2024-02-21T02:10:12;15.55;;;6.07;;
52432;SDS011;38352;53.244;6.594;2024-02-21T02:12:38;19.05;;;5.72;;
52432;SDS011;38352;53.244;6.594;2024-02-21T02:15:05;14.10;;;5.53;;
52432;SDS011;38352;53.244;6.594;2024-02-21T02:17:31;12.43;;;5.90;;
52432;SDS011;38352;53.244;6.594;2024-02-21T02:19:57;19.67;;;6.38;;
52432;SDS011;38352;53.244;6.594;2024-02-21T02:22:25;14.55;;;5.97;;
52432;SDS011;38352;53.244;6.594;2024-02-21T02:24:54;21.77;;;6.32;;
52432;SDS011;38352;53.244;6.594;2024-02-21T02:27:20;13.32;;;6.05;;
52432;SDS011;38352;53.244;6.594;2024-02-21T02:29:48;17.80;;;6.32;;
52432;SDS011;38352;53.244;6.594;2024-02-21T02:32:14;15.95;;;5.68;;
52432;SDS011;38352;53.244;6.594;2024-02-21T02:34:40;19.08;;;6.20;;
52432;SDS011;38352;53.244;6.594;2024-02-21T02:37:06;17.95;;;6.57;;
52432;SDS011;38352;53.244;6.594;2024-02-21T02:39:32;18.45;;;6.97;;
52432;SDS011;38352;53.244;6.594;2024-02-21T02:41:58;15.60;;;6.28;;
52432;SDS011;38352;53.244;6.594;2024-02-21T02:44:25;21.85;;;6.15;;
52432;SDS011;38352;53.244;6.594;2024-02-21T02:46:51;17.77;;;6.13;;
52432;SDS011;38352;53.244;6.594;2024-02-21T02:49:17;18.80;;;6.28;;
52432;SDS011;38352;53.244;6.594;2024-02-21T02:51:43;17.60;;;5.75;;
52432;SDS011;38352;53.244;6.594;2024-02-21T02:54:09;20.85;;;7.03;;
52432;SDS011;38352;53.244;6.594;2024-02-21T02:56:35;21.20;;;6.32;;
52432;SDS011;38352;53.244;6.594;2024-02-21T02:59:01;19.00;;;6.13;;
52432;SDS011;38352;53.244;6.594;2024-02-21T03:01:28;14.82;;;6.07;;
52432;SDS011;38352;53.244;6.594;2024-02-21T03:03:54;25.10;;;7.93;;
52432;SDS011;38352;53.244;6.594;2024-02-21T03:06:20;28.92;;;8.10;;
52432;SDS011;38352;53.244;6.594;2024-02-21T03:08:46;23.58;;;7.70;;
52432;SDS011;38352;53.244;6.594;2024-02-21T03:11:13;26.40;;;7.18;;
52432;SDS011;38352;53.244;6.594;2024-02-21T03:13:39;21.10;;;6.82;;
52432;SDS011;38352;53.244;6.594;2024-02-21T03:16:06;24.65;;;7.50;;
52432;SDS011;38352;53.244;6.594;2024-02-21T03:18:32;21.52;;;6.57;;
52432;SDS011;38352;53.244;6.594;2024-02-21T03:20:58;21.55;;;6.68;;
52432;SDS011;38352;53.244;6.594;2024-02-21T03:23:24;27.45;;;7.30;;
52432;SDS011;38352;53.244;6.594;2024-02-21T03:25:50;23.48;;;7.60;;
52432;SDS011;38352;53.244;6.594;2024-02-21T03:28:16;16.60;;;6.35;;
52432;SDS011;38352;53.244;6.594;2024-02-21T03:30:42;26.27;;;7.60;;
52432;SDS011;38352;53.244;6.594;2024-02-21T03:33:08;26.02;;;8.02;;
52432;SDS011;38352;53.244;6.594;2024-02-21T03:35:34;31.23;;;7.93;;
52432;SDS011;38352;53.244;6.594;2024-02-21T03:38:00;27.13;;;7.65;;
52432;SDS011;38352;53.244;6.594;2024-02-21T03:40:27;23.27;;;7.07;;
52432;SDS011;38352;53.244;6.594;2024-02-21T03:42:53;23.85;;;7.25;;
52432;SDS011;38352;53.244;6.594;2024-02-21T03:45:19;26.65;;;7.30;;
52432;SDS011;38352;53.244;6.594;2024-02-21T03:47:45;20.38;;;6.03;;
52432;SDS011;38352;53.244;6.594;2024-02-21T03:50:11;26.67;;;8.02;;
52432;SDS011;38352;53.244;6.594;2024-02-21T03:52:37;21.80;;;6.47;;
52432;SDS011;38352;53.244;6.594;2024-02-21T03:55:03;24.67;;;7.07;;
52432;SDS011;38352;53.244;6.594;2024-02-21T03:57:29;23.55;;;6.55;;
52432;SDS011;38352;53.244;6.594;2024-02-21T03:59:55;20.88;;;7.70;;
52432;SDS011;38352;53.244;6.594;2024-02-21T04:02:21;25.08;;;7.80;;
52432;SDS011;38352;53.244;6.594;2024-02-21T04:04:47;29.80;;;8.60;;
52432;SDS011;38352;53.244;6.594;2024-02-21T04:07:14;21.08;;;7.00;;
52432;SDS011;38352;53.244;6.594;2024-02-21T04:09:40;18.90;;;7.38;;
52432;SDS011;38352;53.244;6.594;2024-02-21T04:12:07;19.25;;;7.05;;
52432;SDS011;38352;53.244;6.594;2024-02-21T04:14:34;25.17;;;8.10;;
52432;SDS011;38352;53.244;6.594;2024-02-21T04:17:00;22.23;;;8.15;;
52432;SDS011;38352;53.244;6.594;2024-02-21T04:19:27;23.33;;;8.10;;
52432;SDS011;38352;53.244;6.594;2024-02-21T04:21:53;34.75;;;9.13;;
52432;SDS011;38352;53.244;6.594;2024-02-21T04:24:19;28.88;;;8.52;;
52432;SDS011;38352;53.244;6.594;2024-02-21T04:26:45;28.83;;;8.93;;
52432;SDS011;38352;53.244;6.594;2024-02-21T04:29:11;24.55;;;7.95;;
52432;SDS011;38352;53.244;6.594;2024-02-21T04:31:37;22.80;;;7.35;;
52432;SDS011;38352;53.244;6.594;2024-02-21T04:34:03;28.15;;;9.00;;
52432;SDS011;38352;53.244;6.594;2024-02-21T04:36:29;32.42;;;8.85;;
52432;SDS011;38352;53.244;6.594;2024-02-21T04:38:55;25.17;;;8.70;;
52432;SDS011;38352;53.244;6.594;2024-02-21T04:41:21;27.73;;;7.93;;
52432;SDS011;38352;53.244;6.594;2024-02-21T04:43:47;27.25;;;9.10;;
52432;SDS011;38352;53.244;6.594;2024-02-21T04:46:14;21.63;;;8.05;;
52432;SDS011;38352;53.244;6.594;2024-02-21T04:48:40;26.60;;;7.75;;
52432;SDS011;38352;53.244;6.594;2024-02-21T04:51:06;22.05;;;8.10;;
52432;SDS011;38352;53.244;6.594;2024-02-21T04:53:33;23.77;;;8.18;;
52432;SDS011;38352;53.244;6.594;2024-02-21T04:55:59;22.75;;;6.90;;
52432;SDS011;38352;53.244;6.594;2024-02-21T04:58:25;20.55;;;7.70;;
52432;SDS011;38352;53.244;6.594;2024-02-21T05:00:51;24.60;;;7.75;;
52432;SDS011;38352;53.244;6.594;2024-02-21T05:03:19;23.77;;;7.38;;
52432;SDS011;38352;53.244;6.594;2024-02-21T05:05:45;26.23;;;7.07;;
52432;SDS011;38352;53.244;6.594;2024-02-21T05:08:11;18.98;;;7.07;;
52432;SDS011;38352;53.244;6.594;2024-02-21T05:10:38;24.02;;;6.70;;
52432;SDS011;38352;53.244;6.594;2024-02-21T05:13:04;21.45;;;8.02;;
52432;SDS011;38352;53.244;6.594;2024-02-21T05:15:30;27.13;;;7.85;;
52432;SDS011;38352;53.244;6.594;2024-02-21T05:17:56;23.05;;;7.70;;
52432;SDS011;38352;53.244;6.594;2024-02-21T05:20:22;24.92;;;7.85;;
52432;SDS011;38352;53.244;6.594;2024-02-21T05:22:48;35.08;;;8.65;;
52432;SDS011;38352;53.244;6.594;2024-02-21T05:25:14;35.63;;;9.45;;
52432;SDS011;38352;53.244;6.594;2024-02-21T05:27:40;40.25;;;8.57;;
52432;SDS011;38352;53.244;6.594;2024-02-21T05:30:06;26.48;;;7.85;;
52432;SDS011;38352;53.244;6.594;2024-02-21T05:32:33;23.02;;;8.40;;
52432;SDS011;38352;53.244;6.594;2024-02-21T05:34:59;27.60;;;7.97;;
52432;SDS011;38352;53.244;6.594;2024-02-21T05:37:25;26.70;;;8.27;;
52432;SDS011;38352;53.244;6.594;2024-02-21T05:39:51;23.65;;;7.15;;
52432;SDS011;38352;53.244;6.594;2024-02-21T05:42:17;33.30;;;9.50;;
52432;SDS011;38352;53.244;6.594;2024-02-21T05:44:43;24.63;;;7.45;;
52432;SDS011;38352;53.244;6.594;2024-02-21T05:47:10;31.85;;;8.05;;
52432;SDS011;38352;53.244;6.594;2024-02-21T05:49:37;26.88;;;8.18;;
52432;SDS011;38352;53.244;6.594;2024-02-21T05:52:03;24.33;;;7.53;;
52432;SDS011;38352;53.244;6.594;2024-02-21T05:54:31;26.08;;;7.82;;
52432;SDS011;38352;53.244;6.594;2024-02-21T05:56:57;24.80;;;8.00;;
52432;SDS011;38352;53.244;6.594;2024-02-21T05:59:23;24.92;;;8.75;;
52432;SDS011;38352;53.244;6.594;2024-02-21T06:01:56;26.92;;;7.63;;
52432;SDS011;38352;53.244;6.594;2024-02-21T06:04:23;23.83;;;8.70;;
52432;SDS011;38352;53.244;6.594;2024-02-21T06:06:49;24.98;;;8.10;;
52432;SDS011;38352;53.244;6.594;2024-02-21T06:09:15;23.83;;;9.13;;
52432;SDS011;38352;53.244;6.594;2024-02-21T06:11:41;24.92;;;7.28;;
52432;SDS011;38352;53.244;6.594;2024-02-21T06:14:07;23.70;;;7.43;;
52432;SDS011;38352;53.244;6.594;2024-02-21T06:16:33;20.10;;;7.47;;
52432;SDS011;38352;53.244;6.594;2024-02-21T06:18:59;25.67;;;7.85;;
52432;SDS011;38352;53.244;6.594;2024-02-21T06:21:28;27.80;;;8.10;;
52432;SDS011;38352;53.244;6.594;2024-02-21T06:23:54;29.88;;;8.70;;
52432;SDS011;38352;53.244;6.594;2024-02-21T06:26:20;24.98;;;8.23;;
52432;SDS011;38352;53.244;6.594;2024-02-21T06:28:46;23.65;;;8.65;;
52432;SDS011;38352;53.244;6.594;2024-02-21T06:31:13;27.38;;;8.02;;
52432;SDS011;38352;53.244;6.594;2024-02-21T06:33:40;24.27;;;8.40;;
52432;SDS011;38352;53.244;6.594;2024-02-21T06:36:06;27.85;;;8.43;;
52432;SDS011;38352;53.244;6.594;2024-02-21T06:38:32;24.40;;;8.25;;
52432;SDS011;38352;53.244;6.594;2024-02-21T06:40:59;27.90;;;7.88;;
52432;SDS011;38352;53.244;6.594;2024-02-21T06:43:27;26.70;;;9.90;;
52432;SDS011;38352;53.244;6.594;2024-02-21T06:45:53;20.42;;;8.02;;
52432;SDS011;38352;53.244;6.594;2024-02-21T06:48:21;30.55;;;8.88;;
52432;SDS011;38352;53.244;6.594;2024-02-21T06:50:48;23.90;;;9.25;;
52432;SDS011;38352;53.244;6.594;2024-02-21T06:53:14;28.27;;;8.65;;
52432;SDS011;38352;53.244;6.594;2024-02-21T06:55:40;27.05;;;7.70;;
52432;SDS011;38352;53.244;6.594;2024-02-21T06:58:06;25.20;;;9.27;;
52432;SDS011;38352;53.244;6.594;2024-02-21T07:00:36;21.23;;;8.52;;
52432;SDS011;38352;53.244;6.594;2024-02-21T07:03:02;22.85;;;8.93;;
52432;SDS011;38352;53.244;6.594;2024-02-21T07:05:28;23.52;;;9.00;;
52432;SDS011;38352;53.244;6.594;2024-02-21T07:07:55;26.88;;;8.10;;
52432;SDS011;38352;53.244;6.594;2024-02-21T07:10:21;23.27;;;8.77;;
52432;SDS011;38352;53.244;6.594;2024-02-21T07:12:47;30.08;;;8.90;;
52432;SDS011;38352;53.244;6.594;2024-02-21T07:15:13;26.08;;;9.63;;
52432;SDS011;38352;53.244;6.594;2024-02-21T07:17:39;29.85;;;9.02;;
52432;SDS011;38352;53.244;6.594;2024-02-21T07:20:06;23.02;;;9.50;;
52432;SDS011;38352;53.244;6.594;2024-02-21T07:22:32;31.00;;;10.27;;
52432;SDS011;38352;53.244;6.594;2024-02-21T07:24:58;33.70;;;10.93;;
52432;SDS011;38352;53.244;6.594;2024-02-21T07:27:24;36.83;;;12.90;;
52432;SDS011;38352;53.244;6.594;2024-02-21T07:29:53;31.23;;;12.48;;
52432;SDS011;38352;53.244;6.594;2024-02-21T07:32:19;34.40;;;12.23;;
52432;SDS011;38352;53.244;6.594;2024-02-21T07:34:45;33.13;;;13.85;;
52432;SDS011;38352;53.244;6.594;2024-02-21T07:37:12;43.53;;;14.80;;
52432;SDS011;38352;53.244;6.594;2024-02-21T07:39:38;42.25;;;15.75;;
52432;SDS011;38352;53.244;6.594;2024-02-21T07:42:04;51.15;;;16.75;;
52432;SDS011;38352;53.244;6.594;2024-02-21T07:44:30;46.95;;;17.13;;
52432;SDS011;38352;53.244;6.594;2024-02-21T07:46:57;51.10;;;18.58;;
52432;SDS011;38352;53.244;6.594;2024-02-21T07:49:24;46.80;;;17.55;;
52432;SDS011;38352;53.244;6.594;2024-02-21T07:51:50;41.55;;;14.73;;
52432;SDS011;38352;53.244;6.594;2024-02-21T07:54:17;48.00;;;15.50;;
52432;SDS011;38352;53.244;6.594;2024-02-21T07:56:43;44.72;;;15.85;;
52432;SDS011;38352;53.244;6.594;2024-02-21T07:59:09;37.60;;;13.50;;
52432;SDS011;38352;53.244;6.594;2024-02-21T08:01:35;36.55;;;13.40;;
52432;SDS011;38352;53.244;6.594;2024-02-21T08:04:02;45.78;;;14.18;;
52432;SDS011;38352;53.244;6.594;2024-02-21T08:06:29;39.75;;;12.45;;
52432;SDS011;38352;53.244;6.594;2024-02-21T08:08:55;40.47;;;10.40;;
52432;SDS011;38352;53.244;6.594;2024-02-21T08:11:22;25.58;;;10.18;;
52432;SDS011;38352;53.244;6.594;2024-02-21T08:13:48;25.85;;;9.52;;
52432;SDS011;38352;53.244;6.594;2024-02-21T08:16:14;26.52;;;9.07;;
52432;SDS011;38352;53.244;6.594;2024-02-21T08:18:40;23.55;;;8.02;;
52432;SDS011;38352;53.244;6.594;2024-02-21T08:21:09;27.10;;;8.32;;
52432;SDS011;38352;53.244;6.594;2024-02-21T08:23:35;20.58;;;7.35;;
52432;SDS011;38352;53.244;6.594;2024-02-21T08:26:04;25.70;;;8.05;;
52432;SDS011;38352;53.244;6.594;2024-02-21T08:28:30;23.08;;;7.13;;
52432;SDS011;38352;53.244;6.594;2024-02-21T08:30:56;16.98;;;6.30;;
52432;SDS011;38352;53.244;6.594;2024-02-21T08:33:22;19.52;;;7.22;;
52432;SDS011;38352;53.244;6.594;2024-02-21T08:35:50;23.55;;;7.75;;
52432;SDS011;38352;53.244;6.594;2024-02-21T08:38:16;16.67;;;6.72;;
52432;SDS011;38352;53.244;6.594;2024-02-21T08:40:43;22.65;;;6.63;;
52432;SDS011;38352;53.244;6.594;2024-02-21T08:43:09;25.75;;;7.53;;
52432;SDS011;38352;53.244;6.594;2024-02-21T08:45:36;25.98;;;6.95;;
52432;SDS011;38352;53.244;6.594;2024-02-21T08:48:02;25.83;;;7.85;;
52432;SDS011;38352;53.244;6.594;2024-02-21T08:50:28;20.88;;;8.05;;
52432;SDS011;38352;53.244;6.594;2024-02-21T08:52:54;17.55;;;7.22;;
52432;SDS011;38352;53.244;6.594;2024-02-21T08:55:20;16.30;;;7.00;;
52432;SDS011;38352;53.244;6.594;2024-02-21T08:57:46;16.55;;;7.32;;
52432;SDS011;38352;53.244;6.594;2024-02-21T09:00:13;23.70;;;8.10;;
52432;SDS011;38352;53.244;6.594;2024-02-21T09:02:42;19.70;;;7.65;;
52432;SDS011;38352;53.244;6.594;2024-02-21T09:05:08;20.23;;;7.75;;
52432;SDS011;38352;53.244;6.594;2024-02-21T09:07:34;20.38;;;7.88;;
52432;SDS011;38352;53.244;6.594;2024-02-21T09:10:00;22.40;;;8.32;;
52432;SDS011;38352;53.244;6.594;2024-02-21T09:12:26;28.05;;;9.55;;
52432;SDS011;38352;53.244;6.594;2024-02-21T09:14:52;24.70;;;8.57;;
52432;SDS011;38352;53.244;6.594;2024-02-21T09:17:18;19.55;;;9.35;;
52432;SDS011;38352;53.244;6.594;2024-02-21T09:19:46;22.08;;;10.02;;
52432;SDS011;38352;53.244;6.594;2024-02-21T09:22:13;24.67;;;11.40;;
52432;SDS011;38352;53.244;6.594;2024-02-21T09:24:39;23.70;;;10.57;;
52432;SDS011;38352;53.244;6.594;2024-02-21T09:27:05;26.17;;;11.82;;
52432;SDS011;38352;53.244;6.594;2024-02-21T09:29:31;25.15;;;12.02;;
52432;SDS011;38352;53.244;6.594;2024-02-21T09:32:01;26.13;;;11.57;;
52432;SDS011;38352;53.244;6.594;2024-02-21T09:34:28;26.48;;;13.13;;
52432;SDS011;38352;53.244;6.594;2024-02-21T09:36:54;28.05;;;13.38;;
52432;SDS011;38352;53.244;6.594;2024-02-21T09:39:20;23.25;;;13.25;;
52432;SDS011;38352;53.244;6.594;2024-02-21T09:41:48;26.75;;;12.88;;
52432;SDS011;38352;53.244;6.594;2024-02-21T09:44:22;30.77;;;13.23;;
52432;SDS011;38352;53.244;6.594;2024-02-21T09:51:46;24.92;;;12.52;;
52432;SDS011;38352;53.244;6.594;2024-02-21T09:54:13;29.67;;;14.10;;
52432;SDS011;38352;53.244;6.594;2024-02-21T09:56:39;28.92;;;13.38;;
52432;SDS011;38352;53.244;6.594;2024-02-21T09:59:05;27.83;;;13.60;;
52432;SDS011;38352;53.244;6.594;2024-02-21T10:01:31;24.67;;;13.70;;
52432;SDS011;38352;53.244;6.594;2024-02-21T10:03:58;23.90;;;12.75;;
52432;SDS011;38352;53.244;6.594;2024-02-21T10:06:24;26.38;;;13.43;;
52432;SDS011;38352;53.244;6.594;2024-02-21T10:08:53;27.45;;;13.70;;
52432;SDS011;38352;53.244;6.594;2024-02-21T10:11:23;25.05;;;13.02;;
52432;SDS011;38352;53.244;6.594;2024-02-21T10:13:49;24.48;;;13.23;;
52432;SDS011;38352;53.244;6.594;2024-02-21T10:16:16;23.73;;;13.07;;
52432;SDS011;38352;53.244;6.594;2024-02-21T10:18:42;30.23;;;13.30;;
52432;SDS011;38352;53.244;6.594;2024-02-21T10:21:08;22.58;;;13.00;;
52432;SDS011;38352;53.244;6.594;2024-02-21T10:23:44;27.73;;;13.60;;
52432;SDS011;38352;53.244;6.594;2024-02-21T10:26:11;28.83;;;13.52;;
52432;SDS011;38352;53.244;6.594;2024-02-21T10:28:37;26.30;;;13.05;;
52432;SDS011;38352;53.244;6.594;2024-02-21T10:31:07;25.40;;;13.73;;
52432;SDS011;38352;53.244;6.594;2024-02-21T10:33:34;32.67;;;14.38;;
52432;SDS011;38352;53.244;6.594;2024-02-21T10:36:33;30.63;;;14.82;;
52432;SDS011;38352;53.244;6.594;2024-02-21T10:38:52;30.92;;;14.93;;
52432;SDS011;38352;53.244;6.594;2024-02-21T10:41:22;30.08;;;15.38;;
52432;SDS011;38352;53.244;6.594;2024-02-21T10:43:52;28.30;;;14.25;;
52432;SDS011;38352;53.244;6.594;2024-02-21T10:49:25;29.67;;;15.60;;
52432;SDS011;38352;53.244;6.594;2024-02-21T10:51:55;27.08;;;15.98;;
52432;SDS011;38352;53.244;6.594;2024-02-21T10:54:29;30.00;;;15.68;;
52432;SDS011;38352;53.244;6.594;2024-02-21T10:56:56;27.35;;;15.55;;
52432;SDS011;38352;53.244;6.594;2024-02-21T10:59:22;31.88;;;17.75;;
52432;SDS011;38352;53.244;6.594;2024-02-21T11:01:49;28.95;;;15.57;;
52432;SDS011;38352;53.244;6.594;2024-02-21T11:04:15;29.95;;;16.73;;
52432;SDS011;38352;53.244;6.594;2024-02-21T11:06:41;30.88;;;17.00;;
52432;SDS011;38352;53.244;6.594;2024-02-21T11:09:08;29.55;;;16.35;;
52432;SDS011;38352;53.244;6.594;2024-02-21T11:11:42;30.17;;;14.85;;
52432;SDS011;38352;53.244;6.594;2024-02-21T11:14:10;26.17;;;15.25;;
52432;SDS011;38352;53.244;6.594;2024-02-21T11:16:40;26.00;;;14.40;;
52432;SDS011;38352;53.244;6.594;2024-02-21T11:19:10;30.73;;;16.38;;
52432;SDS011;38352;53.244;6.594;2024-02-21T11:21:44;24.75;;;15.65;;
52432;SDS011;38352;53.244;6.594;2024-02-21T11:24:10;35.60;;;17.00;;
52432;SDS011;38352;53.244;6.594;2024-02-21T11:26:39;35.53;;;15.75;;
52432;SDS011;38352;53.244;6.594;2024-02-21T11:29:07;31.58;;;15.90;;
52432;SDS011;38352;53.244;6.594;2024-02-21T11:31:44;27.50;;;14.77;;
52432;SDS011;38352;53.244;6.594;2024-02-21T11:34:17;29.42;;;15.07;;
52432;SDS011;38352;53.244;6.594;2024-02-21T11:36:47;26.15;;;13.55;;
52432;SDS011;38352;53.244;6.594;2024-02-21T11:39:25;31.13;;;16.20;;
52432;SDS011;38352;53.244;6.594;2024-02-21T11:42:04;25.15;;;13.20;;
52432;SDS011;38352;53.244;6.594;2024-02-21T11:44:31;25.08;;;14.10;;
52432;SDS011;38352;53.244;6.594;2024-02-21T11:46:57;24.90;;;14.40;;
52432;SDS011;38352;53.244;6.594;2024-02-21T11:49:30;22.13;;;13.05;;
52432;SDS011;38352;53.244;6.594;2024-02-21T11:51:59;24.33;;;12.90;;
52432;SDS011;38352;53.244;6.594;2024-02-21T11:54:26;20.75;;;11.90;;
52432;SDS011;38352;53.244;6.594;2024-02-21T11:56:53;19.20;;;12.35;;
52432;SDS011;38352;53.244;6.594;2024-02-21T11:59:19;22.15;;;12.02;;
52432;SDS011;38352;53.244;6.594;2024-02-21T12:01:46;25.30;;;12.45;;
52432;SDS011;38352;53.244;6.594;2024-02-21T12:04:12;20.08;;;11.75;;
52432;SDS011;38352;53.244;6.594;2024-02-21T12:06:38;27.80;;;12.23;;
52432;SDS011;38352;53.244;6.594;2024-02-21T12:09:07;20.35;;;11.30;;
52432;SDS011;38352;53.244;6.594;2024-02-21T12:11:36;22.60;;;11.65;;
52432;SDS011;38352;53.244;6.594;2024-02-21T12:14:03;21.25;;;11.50;;
52432;SDS011;38352;53.244;6.594;2024-02-21T12:16:33;21.95;;;11.40;;
52432;SDS011;38352;53.244;6.594;2024-02-21T12:18:59;21.80;;;11.30;;
52432;SDS011;38352;53.244;6.594;2024-02-21T12:21:26;23.48;;;10.57;;
52432;SDS011;38352;53.244;6.594;2024-02-21T12:23:54;22.15;;;11.05;;
52432;SDS011;38352;53.244;6.594;2024-02-21T12:26:21;20.00;;;10.43;;
52432;SDS011;38352;53.244;6.594;2024-02-21T12:28:47;22.00;;;10.55;;
52432;SDS011;38352;53.244;6.594;2024-02-21T12:31:13;17.20;;;10.23;;
52432;SDS011;38352;53.244;6.594;2024-02-21T12:33:41;19.38;;;10.30;;
52432;SDS011;38352;53.244;6.594;2024-02-21T12:36:07;15.85;;;10.20;;
52432;SDS011;38352;53.244;6.594;2024-02-21T12:38:34;16.13;;;9.63;;
52432;SDS011;38352;53.244;6.594;2024-02-21T12:41:00;18.60;;;9.95;;
52432;SDS011;38352;53.244;6.594;2024-02-21T12:43:26;18.70;;;9.50;;
52432;SDS011;38352;53.244;6.594;2024-02-21T12:45:52;18.02;;;9.20;;
52432;SDS011;38352;53.244;6.594;2024-02-21T12:48:19;17.65;;;9.00;;
52432;SDS011;38352;53.244;6.594;2024-02-21T12:50:48;15.57;;;8.40;;
52432;SDS011;38352;53.244;6.594;2024-02-21T12:53:16;18.83;;;9.48;;
52432;SDS011;38352;53.244;6.594;2024-02-21T12:55:44;19.15;;;8.85;;
52432;SDS011;38352;53.244;6.594;2024-02-21T12:58:10;13.95;;;9.13;;
52432;SDS011;38352;53.244;6.594;2024-02-21T13:00:36;16.85;;;8.50;;
52432;SDS011;38352;53.244;6.594;2024-02-21T13:03:03;15.90;;;9.25;;
52432;SDS011;38352;53.244;6.594;2024-02-21T13:05:29;15.35;;;7.88;;
52432;SDS011;38352;53.244;6.594;2024-02-21T13:07:57;15.38;;;8.38;;
52432;SDS011;38352;53.244;6.594;2024-02-21T13:10:23;14.73;;;8.85;;
52432;SDS011;38352;53.244;6.594;2024-02-21T13:12:49;13.52;;;8.13;;
52432;SDS011;38352;53.244;6.594;2024-02-21T13:15:15;13.57;;;7.65;;
52432;SDS011;38352;53.244;6.594;2024-02-21T13:17:45;13.55;;;7.75;;
52432;SDS011;38352;53.244;6.594;2024-02-21T13:20:12;11.68;;;6.90;;
52432;SDS011;38352;53.244;6.594;2024-02-21T13:22:38;12.05;;;7.03;;
52432;SDS011;38352;53.244;6.594;2024-02-21T13:25:04;13.70;;;7.63;;
52432;SDS011;38352;53.244;6.594;2024-02-21T13:27:32;11.45;;;6.50;;
52432;SDS011;38352;53.244;6.594;2024-02-21T13:29:58;15.75;;;8.30;;
52432;SDS011;38352;53.244;6.594;2024-02-21T13:32:28;13.02;;;7.40;;
52432;SDS011;38352;53.244;6.594;2024-02-21T13:34:54;14.00;;;7.28;;
52432;SDS011;38352;53.244;6.594;2024-02-21T13:37:20;12.80;;;7.40;;
52432;SDS011;38352;53.244;6.594;2024-02-21T13:39:46;14.75;;;6.43;;
52432;SDS011;38352;53.244;6.594;2024-02-21T13:42:14;12.32;;;6.70;;
52432;SDS011;38352;53.244;6.594;2024-02-21T13:44:40;15.15;;;6.93;;
52432;SDS011;38352;53.244;6.594;2024-02-21T13:47:06;9.85;;;6.15;;
52432;SDS011;38352;53.244;6.594;2024-02-21T13:49:33;12.45;;;6.43;;
52432;SDS011;38352;53.244;6.594;2024-02-21T13:52:00;11.55;;;6.03;;
52432;SDS011;38352;53.244;6.594;2024-02-21T13:54:26;13.02;;;6.47;;
52432;SDS011;38352;53.244;6.594;2024-02-21T13:56:52;12.55;;;6.53;;
52432;SDS011;38352;53.244;6.594;2024-02-21T13:59:19;12.07;;;6.72;;
52432;SDS011;38352;53.244;6.594;2024-02-21T14:01:45;10.30;;;6.13;;
52432;SDS011;38352;53.244;6.594;2024-02-21T14:04:11;11.05;;;6.18;;
52432;SDS011;38352;53.244;6.594;2024-02-21T14:06:37;13.43;;;5.72;;
52432;SDS011;38352;53.244;6.594;2024-02-21T14:09:11;10.00;;;5.72;;
52432;SDS011;38352;53.244;6.594;2024-02-21T14:11:37;10.25;;;5.88;;
52432;SDS011;38352;53.244;6.594;2024-02-21T14:14:05;9.23;;;5.68;;
52432;SDS011;38352;53.244;6.594;2024-02-21T14:16:32;11.50;;;5.45;;
52432;SDS011;38352;53.244;6.594;2024-02-21T14:18:58;10.73;;;5.60;;
52432;SDS011;38352;53.244;6.594;2024-02-21T14:21:24;9.63;;;5.40;;
52432;SDS011;38352;53.244;6.594;2024-02-21T14:23:51;9.95;;;5.90;;
52432;SDS011;38352;53.244;6.594;2024-02-21T14:26:18;10.80;;;6.20;;
52432;SDS011;38352;53.244;6.594;2024-02-21T14:28:44;9.73;;;6.00;;
52432;SDS011;38352;53.244;6.594;2024-02-21T14:31:11;10.98;;;5.80;;
52432;SDS011;38352;53.244;6.594;2024-02-21T14:33:37;10.55;;;5.80;;
52432;SDS011;38352;53.244;6.594;2024-02-21T14:36:04;10.75;;;6.50;;